Time;durP1;ratioP1;P1;durP2;ratioP2;P2;SDS_P1;SDS_P2;PMS_P1;PMS_P2;Temp;Humidity;BMP_temperature;BMP_pressure;BME280_temperature;BME280_humidity;BME280_pressure;Samples;Min_cycle;Max_cycle;Signal;HPM_P1;HPM_P2
2023/11/09 00:01:44;;;;;;;5.38;1.95;;;;;;;8.11;84.88;97978.34;5084504;28;20036;-83
2023/11/09 00:04:10;;;;;;;3.47;1.90;;;;;;;8.05;85.20;97974.88;5081738;28;20024;-83
2023/11/09 00:06:36;;;;;;;5.90;1.77;;;;;;;8.20;84.70;97984.81;5082723;28;20391;-84
2023/11/09 00:09:01;;;;;;;2.83;1.85;;;;;;;8.20;85.05;97974.97;5080384;28;20028;-84
2023/11/09 00:11:27;;;;;;;4.72;2.00;;;;;;;8.17;84.97;97987.97;5084358;28;20032;-83
2023/11/09 00:13:52;;;;;;;4.40;1.90;;;;;;;8.20;85.20;97980.31;5069634;28;20032;-83
2023/11/09 00:16:18;;;;;;;7.28;1.80;;;;;;;7.96;85.81;97965.75;5050402;28;20028;-83
2023/11/09 00:18:44;;;;;;;2.70;1.80;;;;;;;8.15;85.94;97966.97;5070563;28;20043;-83
2023/11/09 00:21:09;;;;;;;3.97;1.90;;;;;;;8.20;85.72;97977.66;5069632;28;20028;-83
2023/11/09 00:23:36;;;;;;;3.08;2.03;;;;;;;8.18;85.32;97963.00;5054875;28;20056;-83
2023/11/09 00:26:03;;;;;;;3.58;1.85;;;;;;;8.19;85.19;97973.38;5069693;28;20105;-83
2023/11/09 00:28:29;;;;;;;2.38;1.77;;;;;;;8.17;85.45;97959.53;5052814;28;20410;-83
2023/11/09 00:30:54;;;;;;;4.18;2.22;;;;;;;8.11;85.36;97960.56;5065386;28;20040;-83
2023/11/09 00:33:20;;;;;;;3.55;2.03;;;;;;;8.22;85.56;97964.09;5068672;28;20051;-84
2023/11/09 00:35:46;;;;;;;7.60;2.25;;;;;;;8.26;85.17;97955.38;5083698;28;20171;-83
2023/11/09 00:38:15;;;;;;;4.25;1.60;;;;;;;8.12;85.06;97948.06;5074605;28;20033;-83
2023/11/09 00:40:43;;;;;;;6.85;2.67;;;;;;;7.99;86.29;97946.66;5085344;28;20508;-83
2023/11/09 00:43:09;;;;;;;2.00;1.90;;;;;;;8.04;85.67;97946.69;5086143;28;20102;-83
2023/11/09 00:45:34;;;;;;;3.20;1.88;;;;;;;8.16;86.22;97954.47;5086865;28;20116;-83
2023/11/09 00:48:03;;;;;;;2.20;1.70;;;;;;;8.08;86.85;97957.63;5090748;28;20097;-83
2023/11/09 00:50:29;;;;;;;2.00;1.80;;;;;;;8.13;85.46;97939.03;5089751;28;20491;-83
2023/11/09 00:52:54;;;;;;;3.63;2.05;;;;;;;8.05;85.53;97937.66;5071717;28;20047;-83
2023/11/09 00:55:19;;;;;;;3.58;1.90;;;;;;;8.13;86.52;97936.38;5084543;28;20688;-83
2023/11/09 00:57:45;;;;;;;2.38;1.85;;;;;;;8.09;86.04;97932.63;5089104;28;20039;-83
2023/11/09 01:00:12;;;;;;;3.42;1.92;;;;;;;8.10;85.72;97924.38;5086268;28;20020;-83
2023/11/09 01:02:38;;;;;;;3.17;2.00;;;;;;;8.04;85.85;97930.72;5067180;28;20533;-83
2023/11/09 01:05:07;;;;;;;3.60;1.85;;;;;;;7.97;86.74;97924.81;5090400;28;20027;-83
2023/11/09 01:07:32;;;;;;;3.55;2.35;;;;;;;7.88;87.36;97917.59;5089124;28;20103;-83
2023/11/09 01:09:58;;;;;;;2.97;2.22;;;;;;;7.84;87.14;97917.28;5082846;28;20123;-83
2023/11/09 01:12:23;;;;;;;4.07;2.15;;;;;;;7.93;87.00;97913.09;5085434;28;20051;-83
2023/11/09 01:14:49;;;;;;;3.58;2.10;;;;;;;7.74;87.02;97900.47;5065070;28;20180;-83
2023/11/09 01:17:14;;;;;;;2.10;1.90;;;;;;;7.80;87.95;97910.09;5084025;28;20028;-83
2023/11/09 01:19:39;;;;;;;6.07;2.20;;;;;;;7.83;87.66;97891.78;5087454;28;20035;-83
2023/11/09 01:22:05;;;;;;;4.13;2.33;;;;;;;8.06;85.92;97911.91;5058824;28;20020;-83
2023/11/09 01:24:30;;;;;;;5.05;1.90;;;;;;;7.95;87.25;97911.00;5083406;28;20032;-84
2023/11/09 01:26:55;;;;;;;2.70;1.67;;;;;;;7.98;86.96;97899.06;5086055;28;20161;-83
2023/11/09 01:29:21;;;;;;;4.15;1.88;;;;;;;7.69;87.60;97887.16;5089372;28;20309;-83
2023/11/09 01:31:49;;;;;;;4.85;1.85;;;;;;;7.97;86.61;97892.16;5070128;28;20024;-84
2023/11/09 01:34:14;;;;;;;2.67;2.03;;;;;;;7.91;86.81;97887.84;5070282;28;20090;-84
2023/11/09 01:36:40;;;;;;;3.40;2.05;;;;;;;7.90;86.64;97872.97;5078531;28;20040;-83
2023/11/09 01:39:05;;;;;;;4.00;1.90;;;;;;;8.02;86.26;97871.72;5063055;28;20122;-83
2023/11/09 01:41:30;;;;;;;4.43;2.30;;;;;;;7.89;86.94;97869.50;5081400;28;20028;-83
2023/11/09 01:44:00;;;;;;;4.38;1.95;;;;;;;7.73;88.63;97872.31;5065752;28;20029;-83
2023/11/09 01:46:26;;;;;;;4.20;2.13;;;;;;;7.98;86.94;97851.22;5071571;28;20036;-83
2023/11/09 01:48:56;;;;;;;3.97;2.03;;;;;;;7.95;86.89;97857.06;5084085;28;20074;-83
2023/11/09 01:51:22;;;;;;;5.32;1.90;;;;;;;7.93;87.44;97859.19;5082739;28;20016;-84
2023/11/09 01:53:47;;;;;;;2.28;1.98;;;;;;;8.10;86.42;97859.84;5066775;28;20055;-84
2023/11/09 01:56:14;;;;;;;5.00;2.03;;;;;;;7.94;86.58;97855.47;5057898;28;20708;-84
2023/11/09 01:58:42;;;;;;;2.75;2.00;;;;;;;7.94;87.59;97847.50;5080934;28;20035;-84
2023/11/09 02:01:11;;;;;;;5.15;2.13;;;;;;;7.78;87.99;97843.13;5073580;28;20423;-84
2023/11/09 02:03:36;;;;;;;2.35;1.85;;;;;;;7.82;87.53;97825.66;5062795;28;20055;-84
2023/11/09 02:06:03;;;;;;;4.10;2.08;;;;;;;7.56;88.26;97806.84;5065679;28;20064;-84
2023/11/09 02:08:29;;;;;;;4.30;2.10;;;;;;;7.76;88.70;97823.97;5081331;28;20094;-83
2023/11/09 02:10:55;;;;;;;3.97;2.35;;;;;;;7.69;89.06;97804.84;5087686;28;20191;-84
2023/11/09 02:13:21;;;;;;;2.55;2.35;;;;;;;7.65;88.42;97811.69;5074037;28;20024;-84
2023/11/09 02:15:47;;;;;;;5.60;2.30;;;;;;;7.66;88.24;97792.06;5084594;28;20039;-83
2023/11/09 02:18:12;;;;;;;4.80;1.60;;;;;;;7.69;88.14;97797.66;5088365;28;20035;-84
2023/11/09 02:20:38;;;;;;;2.50;2.15;;;;;;;7.69;87.93;97784.38;5088196;28;20081;-83
2023/11/09 02:23:05;;;;;;;2.42;2.08;;;;;;;7.47;89.32;97787.13;5084776;28;20031;-83
2023/11/09 02:25:31;;;;;;;7.40;2.00;;;;;;;7.44;88.69;97787.66;5070729;28;20028;-83
2023/11/09 02:27:57;;;;;;;5.25;2.80;;;;;;;7.55;88.58;97778.72;5069421;28;20035;-83
2023/11/09 02:30:22;;;;;;;2.20;2.00;;;;;;;7.65;89.13;97791.25;5089322;28;20081;-83
2023/11/09 02:32:48;;;;;;;3.50;2.45;;;;;;;7.87;87.71;97783.16;5069918;28;20385;-83
2023/11/09 02:35:14;;;;;;;3.28;2.13;;;;;;;7.72;88.49;97757.31;5076553;28;20036;-83
2023/11/09 02:37:39;;;;;;;5.57;2.47;;;;;;;7.74;87.80;97771.13;5080908;28;20030;-83
2023/11/09 02:40:06;;;;;;;2.05;1.92;;;;;;;7.90;87.27;97762.19;5078954;28;20037;-83
2023/11/09 02:42:31;;;;;;;4.03;1.80;;;;;;;7.69;87.93;97765.00;5072539;28;20021;-83
2023/11/09 02:44:56;;;;;;;3.33;2.00;;;;;;;7.78;88.36;97750.16;5086352;28;20110;-83
2023/11/09 02:47:22;;;;;;;5.85;2.20;;;;;;;8.00;86.76;97740.19;5080500;28;20506;-83
2023/11/09 02:49:48;;;;;;;9.57;2.17;;;;;;;8.00;86.63;97740.19;5086028;28;20400;-83
2023/11/09 02:52:14;;;;;;;4.65;2.10;;;;;;;7.84;87.29;97746.50;5053480;28;20032;-83
2023/11/09 02:54:40;;;;;;;3.15;2.50;;;;;;;7.86;87.43;97723.13;5077309;28;20106;-83
2023/11/09 02:57:06;;;;;;;4.53;2.13;;;;;;;7.73;88.06;97726.25;5090177;28;20024;-83
2023/11/09 02:59:31;;;;;;;4.93;1.90;;;;;;;7.82;87.23;97722.06;5081688;28;20353;-83
2023/11/09 03:01:57;;;;;;;4.80;2.60;;;;;;;7.66;88.23;97715.03;5089642;28;20023;-83
2023/11/09 03:04:22;;;;;;;4.45;2.47;;;;;;;7.58;88.24;97726.94;5069575;28;20127;-83
2023/11/09 03:06:48;;;;;;;5.95;2.20;;;;;;;7.68;88.27;97720.91;5081357;28;20036;-83
2023/11/09 03:09:17;;;;;;;5.47;2.47;;;;;;;7.69;88.14;97727.81;5084339;28;20028;-83
2023/11/09 03:11:42;;;;;;;5.22;2.55;;;;;;;7.77;87.30;97716.69;5082635;28;20119;-83
2023/11/09 03:14:07;;;;;;;4.32;2.33;;;;;;;7.70;88.31;97724.91;5078923;28;20551;-83
2023/11/09 03:16:33;;;;;;;5.70;2.45;;;;;;;7.65;88.28;97719.56;5077278;28;20039;-83
2023/11/09 03:19:00;;;;;;;5.78;2.55;;;;;;;7.57;88.25;97723.50;5082822;28;20040;-83
2023/11/09 03:21:26;;;;;;;3.25;2.22;;;;;;;7.77;87.66;97716.69;5076907;28;20313;-83
2023/11/09 03:23:52;;;;;;;4.22;2.28;;;;;;;7.79;87.83;97727.88;5078022;28;20043;-83
2023/11/09 03:26:17;;;;;;;4.32;2.60;;;;;;;7.80;87.05;97721.50;5084639;28;20023;-83
2023/11/09 03:28:43;;;;;;;3.72;1.92;;;;;;;7.76;87.59;97726.53;5064092;28;20036;-83
2023/11/09 03:31:11;;;;;;;7.25;2.72;;;;;;;7.55;87.59;97722.97;5080444;28;20585;-83
2023/11/09 03:33:36;;;;;;;6.30;2.10;;;;;;;7.66;86.82;97715.84;5086987;28;20024;-83
2023/11/09 03:36:02;;;;;;;5.90;2.53;;;;;;;7.62;87.10;97708.66;5083074;28;20034;-83
2023/11/09 03:38:27;;;;;;;5.05;2.00;;;;;;;7.57;87.86;97715.53;5056805;28;20028;-83
2023/11/09 03:40:52;;;;;;;4.60;2.55;;;;;;;7.48;88.50;97693.19;5084504;28;20488;-83
2023/11/09 03:43:19;;;;;;;2.50;2.15;;;;;;;7.78;87.41;97702.34;5092110;28;20480;-83
2023/11/09 03:45:44;;;;;;;4.65;2.28;;;;;;;7.61;87.69;97694.56;5085901;28;20530;-83
2023/11/09 03:48:12;;;;;;;2.58;1.95;;;;;;;7.60;88.00;97682.34;5081387;28;20055;-83
2023/11/09 03:50:37;;;;;;;9.07;2.50;;;;;;;7.49;88.32;97681.47;5082973;28;20393;-83
2023/11/09 03:53:02;;;;;;;8.38;2.25;;;;;;;7.45;88.82;97691.03;5062078;28;20036;-83
2023/11/09 03:55:28;;;;;;;4.43;2.38;;;;;;;7.42;88.62;97688.91;5064871;28;20584;-83
2023/11/09 03:57:53;;;;;;;2.63;2.38;;;;;;;7.68;88.85;97691.69;5087837;28;20032;-83
2023/11/09 04:00:19;;;;;;;3.65;2.22;;;;;;;7.61;88.18;97688.44;5087821;28;20055;-83
2023/11/09 04:02:44;;;;;;;3.13;2.42;;;;;;;7.80;87.44;97677.13;5067524;28;20052;-82
2023/11/09 04:05:11;;;;;;;5.00;2.42;;;;;;;7.20;89.15;97668.84;5087069;28;20046;-83
2023/11/09 04:07:38;;;;;;;4.40;2.25;;;;;;;7.07;90.11;97664.78;5085462;28;20036;-83
2023/11/09 04:10:06;;;;;;;3.67;2.20;;;;;;;7.30;89.61;97667.03;5080734;28;20510;-83
2023/11/09 04:12:31;;;;;;;3.38;2.38;;;;;;;7.41;89.19;97668.72;5074872;28;20079;-83
2023/11/09 04:14:58;;;;;;;4.90;2.83;;;;;;;7.63;89.10;97675.72;5076584;28;20500;-83
2023/11/09 04:17:24;;;;;;;7.10;2.50;;;;;;;7.54;88.28;97654.16;5076201;28;20028;-83
2023/11/09 04:19:49;;;;;;;4.88;2.92;;;;;;;7.52;88.54;97653.63;5072862;28;20035;-83
2023/11/09 04:22:15;;;;;;;3.10;1.95;;;;;;;7.35;90.20;97668.94;5067941;28;20035;-83
2023/11/09 04:24:40;;;;;;;2.92;2.58;;;;;;;7.15;90.43;97651.03;5079239;28;20030;-83
2023/11/09 04:27:06;;;;;;;2.90;2.38;;;;;;;7.41;89.62;97652.78;5048940;28;20445;-82
2023/11/09 04:29:31;;;;;;;3.38;2.30;;;;;;;7.52;89.29;97650.97;5077977;28;20043;-83
2023/11/09 04:31:56;;;;;;;3.60;2.58;;;;;;;7.33;89.41;97647.97;5063122;28;20135;-83
2023/11/09 04:34:25;;;;;;;2.78;2.17;;;;;;;7.22;89.59;97624.28;5069423;28;20075;-83
2023/11/09 04:36:52;;;;;;;3.58;2.13;;;;;;;7.53;88.96;97645.41;5062345;28;20028;-83
2023/11/09 04:39:28;;;;;;;4.10;2.22;;;;;;;7.52;88.64;97635.84;5077552;28;20435;-83
2023/11/09 04:42:04;;;;;;;5.35;2.15;;;;;;;7.58;88.36;97637.47;5074316;28;20028;-83
2023/11/09 04:44:30;;;;;;;6.25;2.83;;;;;;;7.57;88.67;97632.41;5076016;28;20031;-83
2023/11/09 04:46:57;;;;;;;4.18;1.83;;;;;;;7.52;87.86;97613.81;5073050;28;20126;-83
2023/11/09 04:49:23;;;;;;;2.53;2.33;;;;;;;7.39;89.02;97616.94;5078154;28;21221;-83
2023/11/09 04:51:51;;;;;;;4.97;2.20;;;;;;;7.41;88.78;97612.97;5062383;28;20531;-83
2023/11/09 04:54:18;;;;;;;6.53;2.55;;;;;;;7.58;87.42;97613.56;5077656;28;20028;-82
2023/11/09 05:07:29;;;;;;;4.95;2.33;;;;;;;7.69;87.74;97621.59;5077386;28;20089;-83
2023/11/09 05:09:56;;;;;;;3.08;2.35;;;;;;;7.51;87.90;97607.69;5076239;28;20032;-83
2023/11/09 05:12:21;;;;;;;2.85;2.15;;;;;;;7.51;87.95;97615.66;5059696;28;20047;-83
2023/11/09 05:14:47;;;;;;;5.03;2.67;;;;;;;7.55;87.59;97610.66;5074563;28;20032;-83
2023/11/09 05:17:13;;;;;;;4.25;2.33;;;;;;;7.42;88.25;97603.97;5076168;28;20073;-83
2023/11/09 05:19:40;;;;;;;2.83;2.28;;;;;;;7.68;88.37;97604.84;5075727;28;20032;-83
2023/11/09 05:22:08;;;;;;;6.38;2.00;;;;;;;7.42;88.05;97588.03;5077951;28;20039;-82
2023/11/09 05:24:37;;;;;;;4.05;2.38;;;;;;;7.21;89.19;97594.28;5078132;28;20032;-83
2023/11/09 05:27:03;;;;;;;3.08;2.58;;;;;;;7.38;89.06;97596.78;5070084;28;20024;-83
2023/11/09 05:29:32;;;;;;;3.13;2.50;;;;;;;7.38;89.09;97581.63;5062640;28;20020;-83
2023/11/09 05:31:57;;;;;;;2.35;2.15;;;;;;;7.55;87.84;97586.75;5073997;28;20373;-82
2023/11/09 05:34:23;;;;;;;4.20;2.28;;;;;;;7.51;88.43;97588.34;5074103;28;20043;-83
2023/11/09 05:36:49;;;;;;;3.25;2.53;;;;;;;7.41;88.35;97582.97;5073659;28;20036;-82
2023/11/09 05:39:14;;;;;;;3.53;3.00;;;;;;;7.68;87.99;97591.56;5079177;28;20035;-83
2023/11/09 05:41:41;;;;;;;5.32;2.90;;;;;;;7.84;87.42;97598.53;5063913;28;20086;-83
2023/11/09 05:44:07;;;;;;;2.58;2.10;;;;;;;7.74;86.53;97579.09;5073403;28;20161;-82
2023/11/09 05:46:32;;;;;;;4.57;2.67;;;;;;;7.73;87.50;97588.16;5073048;28;20032;-82
2023/11/09 05:48:58;;;;;;;8.85;4.40;;;;;;;7.83;86.66;97590.81;5074926;28;20030;-81
2023/11/09 05:51:24;;;;;;;3.63;2.65;;;;;;;7.82;87.04;97594.56;5071633;28;20499;-81
2023/11/09 05:53:53;;;;;;;3.65;2.45;;;;;;;7.92;86.64;97605.19;5058225;28;20518;-81
2023/11/09 05:56:19;;;;;;;4.00;2.25;;;;;;;7.86;86.15;97592.97;5078241;28;20020;-81
2023/11/09 05:58:44;;;;;;;3.67;2.40;;;;;;;7.75;87.31;97601.97;5073790;28;20046;-81
2023/11/09 06:01:11;;;;;;;3.50;1.92;;;;;;;7.92;86.07;97600.69;5085611;28;20514;-81
2023/11/09 06:03:37;;;;;;;4.53;2.20;;;;;;;7.92;86.72;97602.53;5082853;28;20190;-81
2023/11/09 06:06:06;;;;;;;5.57;2.50;;;;;;;7.83;87.02;97596.13;5089512;28;20039;-81
2023/11/09 06:08:34;;;;;;;5.80;2.63;;;;;;;7.77;87.05;97599.84;5092273;28;20024;-81
2023/11/09 06:11:00;;;;;;;5.18;1.95;;;;;;;7.90;86.11;97594.03;5077452;28;20032;-81
2023/11/09 06:13:25;;;;;;;2.90;2.22;;;;;;;7.90;86.39;97596.69;5083088;28;20318;-81
2023/11/09 06:15:51;;;;;;;5.97;3.35;;;;;;;7.79;86.14;97600.38;5092708;28;20040;-81
2023/11/09 06:18:17;;;;;;;7.63;2.25;;;;;;;7.75;86.70;97589.50;5085121;28;20507;-81
2023/11/09 06:20:44;;;;;;;3.65;2.20;;;;;;;7.79;86.35;97601.19;5071834;28;20032;-81
2023/11/09 06:23:09;;;;;;;3.58;1.85;;;;;;;7.81;86.69;97608.88;5076232;28;20035;-81
2023/11/09 06:25:35;;;;;;;2.92;2.00;;;;;;;7.82;85.64;97576.72;5077980;28;20028;-81
2023/11/09 06:28:02;;;;;;;2.38;1.92;;;;;;;7.87;85.19;97594.53;5078328;28;20126;-81
2023/11/09 06:30:27;;;;;;;4.03;2.17;;;;;;;7.56;87.12;97591.00;5096209;28;20126;-81
2023/11/09 06:32:54;;;;;;;2.38;2.03;;;;;;;7.79;86.29;97603.03;5081197;28;20130;-81
2023/11/09 06:35:20;;;;;;;4.88;2.10;;;;;;;7.82;85.31;97602.53;5077213;28;20068;-81
2023/11/09 06:37:45;;;;;;;3.05;2.13;;;;;;;7.75;85.29;97596.66;5082099;28;20062;-81
2023/11/09 06:40:16;;;;;;;4.82;2.47;;;;;;;7.82;85.99;97608.59;5089254;28;20043;-82
2023/11/09 06:42:43;;;;;;;1.83;1.60;;;;;;;7.79;85.27;97611.00;5079415;28;20027;-81
2023/11/09 06:45:09;;;;;;;3.28;1.92;;;;;;;7.73;86.16;97609.38;5086110;28;20089;-81
2023/11/09 06:47:40;;;;;;;4.85;2.15;;;;;;;7.83;85.50;97604.09;5089082;28;20061;-82
2023/11/09 06:50:12;;;;;;;5.50;2.10;;;;;;;7.78;85.78;97607.53;5092768;28;20437;-82
2023/11/09 06:52:43;;;;;;;3.45;2.30;;;;;;;7.79;85.86;97613.66;5084500;28;20031;-82
2023/11/09 06:55:15;;;;;;;4.65;2.10;;;;;;;7.75;86.23;97608.06;5091534;28;20093;-81
2023/11/09 06:57:41;;;;;;;3.67;1.77;;;;;;;7.74;86.33;97610.97;5085788;28;20043;-81
2023/11/09 07:00:10;;;;;;;2.10;1.77;;;;;;;7.89;85.06;97592.44;5059155;28;20024;-81
2023/11/09 07:02:37;;;;;;;4.00;1.75;;;;;;;7.80;85.08;97599.31;5079754;28;20020;-81
2023/11/09 07:05:03;;;;;;;3.67;2.13;;;;;;;7.96;85.25;97615.03;5081571;28;20424;-81
2023/11/09 07:07:28;;;;;;;4.13;2.55;;;;;;;7.70;85.44;97615.22;5085342;28;20491;-81
2023/11/09 07:09:54;;;;;;;21.63;2.55;;;;;;;7.78;85.71;97612.03;5072627;28;20078;-81
2023/11/09 07:12:19;;;;;;;3.03;2.35;;;;;;;7.75;85.60;97597.44;5080512;28;20040;-81
2023/11/09 07:14:45;;;;;;;3.88;2.00;;;;;;;7.82;85.50;97602.53;5062826;28;20194;-80
2023/11/09 07:17:11;;;;;;;3.80;2.35;;;;;;;7.61;86.02;97611.44;5077315;28;20032;-81
2023/11/09 07:19:37;;;;;;;3.55;2.38;;;;;;;7.70;86.31;97609.91;5078581;28;20123;-81
2023/11/09 07:22:05;;;;;;;4.05;2.30;;;;;;;7.75;86.33;97607.28;5076441;28;20532;-81
2023/11/09 07:24:37;;;;;;;3.88;2.17;;;;;;;7.72;85.49;97599.81;5090602;28;20368;-81
2023/11/09 07:27:09;;;;;;;3.40;2.13;;;;;;;7.67;85.59;97602.44;5085207;28;20028;-81
2023/11/09 07:29:39;;;;;;;2.28;1.63;;;;;;;7.75;85.91;97600.09;5083994;28;20412;-81
2023/11/09 07:32:05;;;;;;;3.80;2.40;;;;;;;7.77;85.28;97602.50;5088976;28;20507;-81
2023/11/09 07:34:31;;;;;;;3.42;2.20;;;;;;;7.60;86.48;97596.59;5084830;28;20468;-81
2023/11/09 07:36:57;;;;;;;2.30;2.10;;;;;;;7.81;85.54;97606.22;5075975;28;20031;-81
2023/11/09 07:39:27;;;;;;;3.90;1.98;;;;;;;7.88;85.45;97594.31;5071399;28;20420;-81
2023/11/09 07:41:59;;;;;;;5.50;1.90;;;;;;;7.95;84.89;97600.16;5075309;28;20016;-81
2023/11/09 07:44:27;;;;;;;4.63;2.20;;;;;;;7.95;84.49;97599.38;5080725;28;20464;-81
2023/11/09 07:46:52;;;;;;;3.42;1.90;;;;;;;7.91;84.51;97585.78;5081854;28;20097;-81
2023/11/09 07:49:18;;;;;;;4.05;2.33;;;;;;;7.97;84.30;97595.38;5089530;28;20028;-81
2023/11/09 07:51:44;;;;;;;2.47;2.10;;;;;;;7.95;84.94;97594.06;5091339;28;20036;-81
2023/11/09 07:54:10;;;;;;;3.10;2.00;;;;;;;7.84;85.31;97581.81;5073281;28;20518;-81
2023/11/09 07:56:36;;;;;;;7.30;2.20;;;;;;;8.02;84.08;97581.28;5081638;28;20032;-81
2023/11/09 07:59:02;;;;;;;2.00;1.75;;;;;;;8.00;84.20;97588.75;5100665;28;20023;-81
2023/11/09 08:01:28;;;;;;;2.95;2.13;;;;;;;7.87;85.27;97595.34;5086775;28;20047;-81
2023/11/09 08:03:53;;;;;;;3.03;1.80;;;;;;;8.02;84.26;97600.69;5070820;28;20036;-81
2023/11/09 08:06:19;;;;;;;2.42;2.05;;;;;;;7.97;84.65;97600.69;5093893;28;20509;-81
2023/11/09 08:08:44;;;;;;;6.65;2.28;;;;;;;8.00;84.64;97607.34;5090034;28;20121;-81
2023/11/09 08:11:10;;;;;;;2.92;1.83;;;;;;;7.96;84.18;97619.56;5086493;28;20064;-81
2023/11/09 08:13:36;;;;;;;5.35;2.42;;;;;;;7.90;84.53;97604.66;5086098;28;20032;-81
2023/11/09 08:16:03;;;;;;;3.30;1.80;;;;;;;8.03;84.06;97609.47;5089426;28;20755;-81
2023/11/09 08:18:29;;;;;;;6.22;1.90;;;;;;;7.96;84.36;97609.72;5075719;28;20103;-81
2023/11/09 08:20:54;;;;;;;2.50;1.50;;;;;;;7.88;84.88;97617.41;5093621;28;20109;-81
2023/11/09 08:23:20;;;;;;;2.70;1.65;;;;;;;7.87;84.53;97594.53;5094791;28;20428;-81
2023/11/09 08:25:45;;;;;;;3.58;1.90;;;;;;;7.98;84.08;97618.22;5091333;28;20131;-81
2023/11/09 08:28:11;;;;;;;6.32;2.35;;;;;;;7.87;84.95;97621.91;5090571;28;20105;-82
2023/11/09 08:30:55;;;;;;;6.28;2.38;;;;;;;7.70;85.14;97604.59;5091355;28;20410;-82
2023/11/09 08:33:24;;;;;;;15.18;1.92;;;;;;;7.92;85.16;97611.31;5093545;28;20032;-83
2023/11/09 08:35:52;;;;;;;3.40;2.25;;;;;;;7.90;84.83;97617.94;5060428;28;20028;-82
2023/11/09 08:38:18;;;;;;;3.28;2.95;;;;;;;7.70;85.21;97607.25;5092620;28;20026;-82
2023/11/09 08:40:51;;;;;;;5.63;2.50;;;;;;;7.61;85.54;97619.41;5089303;28;20391;-82
2023/11/09 08:43:16;;;;;;;5.95;2.58;;;;;;;7.75;84.75;97607.28;5095691;28;20387;-82
2023/11/09 08:45:42;;;;;;;2.75;2.10;;;;;;;7.56;85.84;97618.34;5091191;28;20025;-82
2023/11/09 08:48:09;;;;;;;3.60;2.88;;;;;;;7.71;85.92;97601.66;5091824;28;20497;-83
2023/11/09 08:50:38;;;;;;;45.55;4.90;;;;;;;7.84;84.77;97613.69;5093307;28;20077;-83
2023/11/09 08:53:04;;;;;;;20.42;3.42;;;;;;;7.71;85.31;97595.56;5091242;28;20116;-82
2023/11/09 08:55:33;;;;;;;13.20;4.10;;;;;;;7.94;84.67;97611.03;5089798;28;20024;-82
2023/11/09 08:57:59;;;;;;;21.48;3.65;;;;;;;8.08;84.88;97617.47;5094165;28;20520;-82
2023/11/09 09:00:28;;;;;;;8.00;2.95;;;;;;;8.01;84.41;97598.31;5091199;28;20131;-82
2023/11/09 09:02:54;;;;;;;10.75;3.95;;;;;;;8.11;84.15;97607.09;5091617;28;20230;-82
2023/11/09 09:05:25;;;;;;;3.92;2.65;;;;;;;8.09;85.10;97606.56;5093608;28;20081;-82
2023/11/09 09:07:53;;;;;;;6.60;2.55;;;;;;;8.10;84.87;97610.03;5094148;28;20039;-82
2023/11/09 09:10:20;;;;;;;4.63;2.88;;;;;;;8.19;84.27;97614.56;5073083;28;20381;-82
2023/11/09 09:12:47;;;;;;;7.43;2.33;;;;;;;8.19;84.25;97603.16;5093687;28;20024;-82
2023/11/09 09:15:15;;;;;;;2.70;2.05;;;;;;;8.23;83.97;97612.97;5073343;28;20047;-82
2023/11/09 09:17:42;;;;;;;2.85;2.40;;;;;;;8.16;84.58;97604.47;5091712;28;20067;-83
2023/11/09 09:20:12;;;;;;;4.78;2.42;;;;;;;8.32;84.47;97597.34;5093682;28;20093;-82
2023/11/09 09:22:42;;;;;;;6.97;2.00;;;;;;;8.36;84.52;97603.72;5097826;28;20027;-82
2023/11/09 09:25:10;;;;;;;2.65;1.88;;;;;;;8.36;84.21;97598.41;5088912;28;20032;-82
2023/11/09 09:27:43;;;;;;;2.85;2.60;;;;;;;8.42;84.25;97607.19;5092826;28;20024;-82
2023/11/09 09:30:10;;;;;;;3.60;1.60;;;;;;;8.31;83.89;97609.03;5092344;28;20042;-82
2023/11/09 09:32:42;;;;;;;2.05;1.80;;;;;;;8.41;83.39;97609.03;5091761;28;20028;-82
2023/11/09 09:35:10;;;;;;;1.98;1.77;;;;;;;8.46;82.91;97602.91;5092823;28;20024;-83
2023/11/09 09:37:37;;;;;;;1.90;1.50;;;;;;;8.43;83.83;97612.22;5092181;28;20707;-82
2023/11/09 09:40:14;;;;;;;5.57;2.08;;;;;;;8.44;83.81;97607.72;5089090;28;20040;-82
2023/11/09 09:42:53;;;;;;;2.72;1.88;;;;;;;8.38;84.62;97595.47;5093487;28;20016;-81
2023/11/09 09:45:27;;;;;;;5.22;1.70;;;;;;;8.42;83.95;97596.53;5092964;28;20043;-82
2023/11/09 09:47:56;;;;;;;3.15;1.77;;;;;;;8.50;83.94;97607.44;5080094;28;20017;-82
2023/11/09 09:50:22;;;;;;;1.75;1.65;;;;;;;8.47;84.53;97609.84;5071831;28;20025;-83
2023/11/09 09:52:50;;;;;;;5.07;1.80;;;;;;;8.51;84.45;97603.75;5083321;28;20070;-82
2023/11/09 09:55:18;;;;;;;1.77;1.65;;;;;;;8.48;84.41;97606.91;5090406;28;20028;-82
2023/11/09 09:57:44;;;;;;;3.88;1.60;;;;;;;8.56;84.73;97608.25;5092829;28;20383;-82
2023/11/09 10:00:14;;;;;;;2.67;2.03;;;;;;;8.50;84.73;97612.75;5092547;28;20621;-82
2023/11/09 10:02:40;;;;;;;2.58;1.92;;;;;;;8.44;85.59;97613.03;5091222;28;20044;-82
2023/11/09 10:05:12;;;;;;;1.63;1.50;;;;;;;8.50;85.43;97611.97;5082567;28;20040;-82
2023/11/09 10:07:56;;;;;;;4.35;1.77;;;;;;;8.45;85.57;97598.69;5086253;28;20043;-82
2023/11/09 10:10:21;;;;;;;2.85;1.52;;;;;;;8.57;84.99;97605.34;5090315;28;20024;-82
2023/11/09 10:12:47;;;;;;;3.17;1.50;;;;;;;8.30;86.69;97600.25;5090831;28;20505;-82
2023/11/09 10:15:15;;;;;;;2.80;2.00;;;;;;;8.44;85.46;97597.88;5090742;28;20103;-82
2023/11/09 10:17:41;;;;;;;1.90;1.52;;;;;;;8.58;85.16;97598.97;5087181;28;20020;-82
2023/11/09 10:20:13;;;;;;;1.85;1.35;;;;;;;8.57;85.64;97597.34;5089668;28;20648;-82
2023/11/09 10:22:39;;;;;;;1.90;1.70;;;;;;;8.49;85.78;97587.25;5090657;28;20024;-82
2023/11/09 10:25:04;;;;;;;3.00;1.73;;;;;;;8.60;85.04;97586.19;5082026;28;20072;-81
2023/11/09 10:27:30;;;;;;;3.33;1.52;;;;;;;8.58;85.18;97590.97;5071031;28;20033;-82
2023/11/09 10:29:56;;;;;;;2.03;1.83;;;;;;;8.58;84.99;97585.66;5102587;28;20059;-82
2023/11/09 10:32:22;;;;;;;1.77;1.63;;;;;;;8.61;85.43;97590.44;5086948;28;20491;-82
2023/11/09 10:34:50;;;;;;;1.65;1.55;;;;;;;8.54;85.37;97573.16;5070132;28;20035;-82
2023/11/09 10:37:18;;;;;;;3.05;1.80;;;;;;;8.64;85.42;97581.13;5075219;28;20020;-83
2023/11/09 10:39:46;;;;;;;2.92;1.50;;;;;;;8.48;86.01;97576.88;5086360;28;20069;-83
2023/11/09 10:42:13;;;;;;;2.95;1.80;;;;;;;8.39;87.17;97581.91;5070596;28;20115;-83
2023/11/09 10:44:42;;;;;;;2.25;2.05;;;;;;;8.41;86.61;97582.44;5071209;28;20051;-83
2023/11/09 10:47:08;;;;;;;3.47;2.00;;;;;;;8.31;86.36;97577.13;5079933;28;20043;-83
2023/11/09 10:49:36;;;;;;;1.70;1.60;;;;;;;8.12;87.51;97579.47;5089455;28;20028;-83
2023/11/09 10:52:05;;;;;;;3.30;1.63;;;;;;;8.10;87.36;97583.47;5088250;28;20472;-83
2023/11/09 10:54:30;;;;;;;2.60;1.83;;;;;;;8.05;87.22;97572.81;5092085;28;20468;-83
2023/11/09 10:56:56;;;;;;;1.98;1.63;;;;;;;8.21;86.93;97580.53;5090219;28;20090;-83
2023/11/09 10:59:23;;;;;;;3.10;1.13;;;;;;;7.98;87.20;97574.91;5087630;28;20058;-82
2023/11/09 11:01:53;;;;;;;2.63;1.90;;;;;;;7.98;86.97;97562.44;5090020;28;20433;-82
2023/11/09 11:04:25;;;;;;;2.92;1.73;;;;;;;8.16;86.61;97564.59;5072223;28;20032;-82
2023/11/09 11:06:56;;;;;;;3.50;1.50;;;;;;;8.14;87.33;97569.38;5088314;28;20047;-82
2023/11/09 11:09:26;;;;;;;2.25;2.00;;;;;;;8.12;86.76;97566.19;5091686;28;20460;-82
2023/11/09 11:11:55;;;;;;;2.22;2.03;;;;;;;8.10;86.43;97570.19;5092568;28;20043;-82
2023/11/09 11:14:25;;;;;;;8.15;2.22;;;;;;;8.01;86.51;97559.28;5090549;28;20103;-82
2023/11/09 11:17:28;;;;;;;1.45;1.30;;;;;;;8.22;86.39;97560.06;5057450;28;20040;-82
2023/11/09 11:20:12;;;;;;;3.03;1.92;;;;;;;8.07;86.86;97570.69;5087815;28;20110;-82
2023/11/09 11:22:56;;;;;;;2.47;1.27;;;;;;;8.10;86.46;97547.03;5086671;28;20116;-82
2023/11/09 11:25:35;;;;;;;1.35;1.25;;;;;;;8.21;85.76;97545.22;5083310;28;20028;-82
2023/11/09 11:28:02;;;;;;;1.63;1.52;;;;;;;8.16;86.75;97538.03;5092839;28;20070;-81
2023/11/09 11:30:32;;;;;;;2.67;1.42;;;;;;;8.03;86.65;97546.50;5091999;28;20387;-82
2023/11/09 11:32:59;;;;;;;2.58;1.25;;;;;;;8.21;86.02;97548.63;5071711;28;20029;-82
2023/11/09 11:35:38;;;;;;;2.53;1.70;;;;;;;8.25;86.05;97551.59;5071986;28;20036;-82
2023/11/09 11:38:13;;;;;;;1.83;1.40;;;;;;;8.34;85.71;97549.22;5078194;28;20038;-82
2023/11/09 11:40:39;;;;;;;1.70;1.58;;;;;;;8.29;85.96;97544.69;5088874;28;20024;-82
2023/11/09 11:43:05;;;;;;;2.35;1.40;;;;;;;8.40;85.35;97546.31;5104606;28;20020;-82
2023/11/09 11:45:31;;;;;;;2.03;1.35;;;;;;;8.43;85.49;97543.09;5089387;28;20535;-82
2023/11/09 11:48:01;;;;;;;3.28;1.30;;;;;;;8.37;85.80;97533.53;5104342;28;20063;-82
2023/11/09 11:50:26;;;;;;;1.10;1.00;;;;;;;8.32;85.73;97531.66;5077306;28;20490;-82
2023/11/09 11:53:06;;;;;;;1.40;1.30;;;;;;;8.37;85.44;97546.03;5092582;28;20020;-82